sensor_id;sensor_type;location;lat;lon;timestamp;P1;durP1;ratioP1;P2;durP2;ratioP2
72261;SDS011;60173;52.112;8.648;2022-07-23T00:01:05;15.00;;;10.23;;
72261;SDS011;60173;52.112;8.648;2022-07-23T00:03:32;17.52;;;10.82;;
72261;SDS011;60173;52.112;8.648;2022-07-23T00:05:58;14.10;;;11.35;;
72261;SDS011;60173;52.112;8.648;2022-07-23T00:08:24;17.00;;;10.32;;
72261;SDS011;60173;52.112;8.648;2022-07-23T00:10:51;15.45;;;11.13;;
72261;SDS011;60173;52.112;8.648;2022-07-23T00:13:17;15.43;;;11.63;;
72261;SDS011;60173;52.112;8.648;2022-07-23T00:15:43;17.92;;;11.75;;
72261;SDS011;60173;52.112;8.648;2022-07-23T00:18:10;14.35;;;10.77;;
72261;SDS011;60173;52.112;8.648;2022-07-23T00:20:36;12.85;;;10.45;;
72261;SDS011;60173;52.112;8.648;2022-07-23T00:23:02;14.73;;;10.65;;
72261;SDS011;60173;52.112;8.648;2022-07-23T00:25:29;12.38;;;10.57;;
72261;SDS011;60173;52.112;8.648;2022-07-23T00:27:57;15.50;;;9.57;;
72261;SDS011;60173;52.112;8.648;2022-07-23T00:30:24;16.00;;;9.95;;
72261;SDS011;60173;52.112;8.648;2022-07-23T00:33:01;15.40;;;9.98;;
72261;SDS011;60173;52.112;8.648;2022-07-23T00:35:31;16.48;;;11.23;;
72261;SDS011;60173;52.112;8.648;2022-07-23T00:38:00;14.38;;;10.35;;
72261;SDS011;60173;52.112;8.648;2022-07-23T00:40:28;14.27;;;10.77;;
72261;SDS011;60173;52.112;8.648;2022-07-23T00:42:55;15.00;;;9.73;;
72261;SDS011;60173;52.112;8.648;2022-07-23T00:45:22;14.10;;;9.88;;
72261;SDS011;60173;52.112;8.648;2022-07-23T00:47:48;12.80;;;9.73;;
72261;SDS011;60173;52.112;8.648;2022-07-23T00:50:15;11.93;;;9.65;;
72261;SDS011;60173;52.112;8.648;2022-07-23T00:52:41;12.57;;;9.35;;
72261;SDS011;60173;52.112;8.648;2022-07-23T00:55:08;12.65;;;9.15;;
72261;SDS011;60173;52.112;8.648;2022-07-23T00:57:36;15.15;;;9.65;;
72261;SDS011;60173;52.112;8.648;2022-07-23T01:00:04;12.90;;;10.32;;
72261;SDS011;60173;52.112;8.648;2022-07-23T01:02:32;14.00;;;10.30;;
72261;SDS011;60173;52.112;8.648;2022-07-23T01:04:59;14.35;;;10.00;;
72261;SDS011;60173;52.112;8.648;2022-07-23T01:07:25;13.80;;;9.75;;
72261;SDS011;60173;52.112;8.648;2022-07-23T01:09:52;11.88;;;10.00;;
72261;SDS011;60173;52.112;8.648;2022-07-23T01:12:20;15.88;;;9.82;;
72261;SDS011;60173;52.112;8.648;2022-07-23T01:14:56;14.52;;;10.57;;
72261;SDS011;60173;52.112;8.648;2022-07-23T01:17:23;16.67;;;11.07;;
72261;SDS011;60173;52.112;8.648;2022-07-23T01:19:50;16.38;;;11.48;;
72261;SDS011;60173;52.112;8.648;2022-07-23T01:22:17;13.75;;;10.63;;
72261;SDS011;60173;52.112;8.648;2022-07-23T01:24:45;15.15;;;10.43;;
72261;SDS011;60173;52.112;8.648;2022-07-23T01:27:12;13.75;;;11.35;;
72261;SDS011;60173;52.112;8.648;2022-07-23T01:29:39;13.27;;;10.43;;
72261;SDS011;60173;52.112;8.648;2022-07-23T01:32:05;15.55;;;10.20;;
72261;SDS011;60173;52.112;8.648;2022-07-23T01:34:32;16.88;;;11.10;;
72261;SDS011;60173;52.112;8.648;2022-07-23T01:36:59;15.45;;;10.55;;
72261;SDS011;60173;52.112;8.648;2022-07-23T01:39:25;14.05;;;10.02;;
72261;SDS011;60173;52.112;8.648;2022-07-23T01:41:52;15.48;;;10.63;;
72261;SDS011;60173;52.112;8.648;2022-07-23T01:44:18;18.05;;;10.75;;
72261;SDS011;60173;52.112;8.648;2022-07-23T01:46:45;16.65;;;10.98;;
72261;SDS011;60173;52.112;8.648;2022-07-23T01:49:11;13.93;;;10.00;;
72261;SDS011;60173;52.112;8.648;2022-07-23T01:51:37;13.25;;;9.15;;
72261;SDS011;60173;52.112;8.648;2022-07-23T01:54:04;14.63;;;9.52;;
72261;SDS011;60173;52.112;8.648;2022-07-23T01:56:30;12.55;;;9.20;;
72261;SDS011;60173;52.112;8.648;2022-07-23T01:58:57;15.13;;;9.73;;
72261;SDS011;60173;52.112;8.648;2022-07-23T02:01:24;13.82;;;9.02;;
72261;SDS011;60173;52.112;8.648;2022-07-23T02:03:50;15.38;;;9.73;;
72261;SDS011;60173;52.112;8.648;2022-07-23T02:06:16;15.80;;;10.05;;
72261;SDS011;60173;52.112;8.648;2022-07-23T02:08:43;14.50;;;10.45;;
72261;SDS011;60173;52.112;8.648;2022-07-23T02:11:09;14.18;;;10.57;;
72261;SDS011;60173;52.112;8.648;2022-07-23T02:13:35;13.85;;;10.98;;
72261;SDS011;60173;52.112;8.648;2022-07-23T02:16:02;15.73;;;11.15;;
72261;SDS011;60173;52.112;8.648;2022-07-23T02:18:28;19.02;;;11.73;;
72261;SDS011;60173;52.112;8.648;2022-07-23T02:20:55;19.38;;;12.35;;
72261;SDS011;60173;52.112;8.648;2022-07-23T02:23:21;22.98;;;12.55;;
72261;SDS011;60173;52.112;8.648;2022-07-23T02:25:47;21.55;;;12.55;;
72261;SDS011;60173;52.112;8.648;2022-07-23T02:28:14;19.77;;;13.43;;
72261;SDS011;60173;52.112;8.648;2022-07-23T02:30:40;20.40;;;13.50;;
72261;SDS011;60173;52.112;8.648;2022-07-23T02:33:07;19.55;;;12.25;;
72261;SDS011;60173;52.112;8.648;2022-07-23T02:35:33;14.38;;;11.52;;
72261;SDS011;60173;52.112;8.648;2022-07-23T02:37:59;17.63;;;12.80;;
72261;SDS011;60173;52.112;8.648;2022-07-23T02:40:26;16.55;;;11.82;;
72261;SDS011;60173;52.112;8.648;2022-07-23T02:42:52;18.75;;;11.88;;
72261;SDS011;60173;52.112;8.648;2022-07-23T02:45:18;16.10;;;11.95;;
72261;SDS011;60173;52.112;8.648;2022-07-23T02:47:45;18.02;;;12.73;;
72261;SDS011;60173;52.112;8.648;2022-07-23T02:50:11;14.73;;;11.85;;
72261;SDS011;60173;52.112;8.648;2022-07-23T02:52:37;17.48;;;11.70;;
72261;SDS011;60173;52.112;8.648;2022-07-23T02:55:05;16.27;;;11.63;;
72261;SDS011;60173;52.112;8.648;2022-07-23T02:57:31;17.35;;;11.77;;
72261;SDS011;60173;52.112;8.648;2022-07-23T02:59:58;17.00;;;11.63;;
72261;SDS011;60173;52.112;8.648;2022-07-23T03:02:24;18.73;;;11.90;;
72261;SDS011;60173;52.112;8.648;2022-07-23T03:04:51;15.77;;;11.77;;
72261;SDS011;60173;52.112;8.648;2022-07-23T03:07:17;14.73;;;11.30;;
72261;SDS011;60173;52.112;8.648;2022-07-23T03:09:44;19.50;;;11.90;;
72261;SDS011;60173;52.112;8.648;2022-07-23T03:12:10;19.95;;;12.27;;
72261;SDS011;60173;52.112;8.648;2022-07-23T03:14:39;15.70;;;12.15;;
72261;SDS011;60173;52.112;8.648;2022-07-23T03:17:07;16.65;;;11.73;;
72261;SDS011;60173;52.112;8.648;2022-07-23T03:19:34;15.30;;;11.52;;
72261;SDS011;60173;52.112;8.648;2022-07-23T03:22:00;19.45;;;11.85;;
72261;SDS011;60173;52.112;8.648;2022-07-23T03:24:27;25.67;;;11.57;;
72261;SDS011;60173;52.112;8.648;2022-07-23T03:26:53;19.25;;;13.05;;
72261;SDS011;60173;52.112;8.648;2022-07-23T03:29:19;19.65;;;12.02;;
72261;SDS011;60173;52.112;8.648;2022-07-23T03:31:46;33.85;;;13.02;;
72261;SDS011;60173;52.112;8.648;2022-07-23T03:34:12;22.90;;;12.95;;
72261;SDS011;60173;52.112;8.648;2022-07-23T03:36:38;21.95;;;13.77;;
72261;SDS011;60173;52.112;8.648;2022-07-23T03:39:05;22.20;;;13.60;;
72261;SDS011;60173;52.112;8.648;2022-07-23T03:41:31;17.17;;;11.95;;
72261;SDS011;60173;52.112;8.648;2022-07-23T03:43:58;20.58;;;11.63;;
72261;SDS011;60173;52.112;8.648;2022-07-23T03:46:24;16.40;;;12.73;;
72261;SDS011;60173;52.112;8.648;2022-07-23T03:48:50;17.08;;;12.52;;
72261;SDS011;60173;52.112;8.648;2022-07-23T03:51:24;23.75;;;13.93;;
72261;SDS011;60173;52.112;8.648;2022-07-23T03:53:50;20.02;;;12.88;;
72261;SDS011;60173;52.112;8.648;2022-07-23T03:56:16;27.23;;;12.75;;
72261;SDS011;60173;52.112;8.648;2022-07-23T03:58:43;20.45;;;13.07;;
72261;SDS011;60173;52.112;8.648;2022-07-23T04:01:10;17.45;;;11.45;;
72261;SDS011;60173;52.112;8.648;2022-07-23T04:03:36;16.00;;;12.63;;
72261;SDS011;60173;52.112;8.648;2022-07-23T04:06:03;16.83;;;11.27;;
72261;SDS011;60173;52.112;8.648;2022-07-23T04:08:30;22.17;;;11.82;;
72261;SDS011;60173;52.112;8.648;2022-07-23T04:10:56;19.25;;;12.50;;
72261;SDS011;60173;52.112;8.648;2022-07-23T04:13:22;15.45;;;11.65;;
72261;SDS011;60173;52.112;8.648;2022-07-23T04:15:49;13.95;;;10.95;;
72261;SDS011;60173;52.112;8.648;2022-07-23T04:18:16;18.67;;;10.95;;
72261;SDS011;60173;52.112;8.648;2022-07-23T04:20:43;17.27;;;10.52;;
72261;SDS011;60173;52.112;8.648;2022-07-23T04:23:10;16.65;;;11.32;;
72261;SDS011;60173;52.112;8.648;2022-07-23T04:25:36;13.23;;;10.45;;
72261;SDS011;60173;52.112;8.648;2022-07-23T04:28:03;18.40;;;13.23;;
72261;SDS011;60173;52.112;8.648;2022-07-23T04:30:30;13.63;;;10.23;;
72261;SDS011;60173;52.112;8.648;2022-07-23T04:32:56;19.83;;;11.90;;
72261;SDS011;60173;52.112;8.648;2022-07-23T04:35:22;15.57;;;10.82;;
72261;SDS011;60173;52.112;8.648;2022-07-23T04:37:49;15.00;;;10.38;;
72261;SDS011;60173;52.112;8.648;2022-07-23T04:40:15;16.85;;;11.27;;
72261;SDS011;60173;52.112;8.648;2022-07-23T04:42:42;17.83;;;10.25;;
72261;SDS011;60173;52.112;8.648;2022-07-23T04:45:08;25.08;;;11.68;;
72261;SDS011;60173;52.112;8.648;2022-07-23T04:47:39;15.02;;;10.50;;
72261;SDS011;60173;52.112;8.648;2022-07-23T04:50:05;16.08;;;9.95;;
72261;SDS011;60173;52.112;8.648;2022-07-23T04:52:32;15.88;;;10.93;;
72261;SDS011;60173;52.112;8.648;2022-07-23T04:54:58;16.02;;;10.90;;
72261;SDS011;60173;52.112;8.648;2022-07-23T04:57:25;15.70;;;10.63;;
72261;SDS011;60173;52.112;8.648;2022-07-23T04:59:51;14.95;;;11.30;;
72261;SDS011;60173;52.112;8.648;2022-07-23T05:02:17;16.25;;;11.85;;
72261;SDS011;60173;52.112;8.648;2022-07-23T05:04:44;14.85;;;11.00;;
72261;SDS011;60173;52.112;8.648;2022-07-23T05:07:10;14.35;;;10.55;;
72261;SDS011;60173;52.112;8.648;2022-07-23T05:09:37;16.48;;;10.52;;
72261;SDS011;60173;52.112;8.648;2022-07-23T05:12:03;17.30;;;9.57;;
72261;SDS011;60173;52.112;8.648;2022-07-23T05:14:30;16.98;;;11.38;;
72261;SDS011;60173;52.112;8.648;2022-07-23T05:16:56;20.25;;;10.93;;
72261;SDS011;60173;52.112;8.648;2022-07-23T05:19:23;18.05;;;10.23;;
72261;SDS011;60173;52.112;8.648;2022-07-23T05:21:50;12.68;;;9.40;;
72261;SDS011;60173;52.112;8.648;2022-07-23T05:24:17;17.10;;;10.10;;
72261;SDS011;60173;52.112;8.648;2022-07-23T05:26:43;12.77;;;8.75;;
72261;SDS011;60173;52.112;8.648;2022-07-23T05:29:10;18.40;;;10.40;;
72261;SDS011;60173;52.112;8.648;2022-07-23T05:31:36;12.55;;;9.25;;
72261;SDS011;60173;52.112;8.648;2022-07-23T05:34:02;17.05;;;9.30;;
72261;SDS011;60173;52.112;8.648;2022-07-23T05:36:30;14.98;;;9.55;;
72261;SDS011;60173;52.112;8.648;2022-07-23T05:38:57;18.17;;;8.85;;
72261;SDS011;60173;52.112;8.648;2022-07-23T05:41:25;12.45;;;8.65;;
72261;SDS011;60173;52.112;8.648;2022-07-23T05:43:51;12.70;;;8.68;;
72261;SDS011;60173;52.112;8.648;2022-07-23T05:46:17;13.90;;;8.63;;
72261;SDS011;60173;52.112;8.648;2022-07-23T05:48:44;15.60;;;9.80;;
72261;SDS011;60173;52.112;8.648;2022-07-23T05:51:10;14.65;;;9.18;;
72261;SDS011;60173;52.112;8.648;2022-07-23T05:53:37;16.00;;;8.82;;
72261;SDS011;60173;52.112;8.648;2022-07-23T05:56:03;11.60;;;8.75;;
72261;SDS011;60173;52.112;8.648;2022-07-23T05:58:30;11.15;;;7.72;;
72261;SDS011;60173;52.112;8.648;2022-07-23T06:00:56;12.00;;;8.18;;
72261;SDS011;60173;52.112;8.648;2022-07-23T06:03:22;12.32;;;8.05;;
72261;SDS011;60173;52.112;8.648;2022-07-23T06:05:49;12.25;;;8.38;;
72261;SDS011;60173;52.112;8.648;2022-07-23T06:08:15;17.77;;;8.70;;
72261;SDS011;60173;52.112;8.648;2022-07-23T06:10:42;15.52;;;8.95;;
72261;SDS011;60173;52.112;8.648;2022-07-23T06:13:08;15.23;;;8.27;;
72261;SDS011;60173;52.112;8.648;2022-07-23T06:15:34;10.63;;;7.43;;
72261;SDS011;60173;52.112;8.648;2022-07-23T06:18:01;14.02;;;7.70;;
72261;SDS011;60173;52.112;8.648;2022-07-23T06:20:27;10.45;;;6.90;;
72261;SDS011;60173;52.112;8.648;2022-07-23T06:22:54;14.32;;;7.53;;
72261;SDS011;60173;52.112;8.648;2022-07-23T06:25:20;10.98;;;6.20;;
72261;SDS011;60173;52.112;8.648;2022-07-23T06:27:47;12.43;;;6.65;;
72261;SDS011;60173;52.112;8.648;2022-07-23T06:30:13;9.88;;;6.22;;
72261;SDS011;60173;52.112;8.648;2022-07-23T06:32:42;9.80;;;6.82;;
72261;SDS011;60173;52.112;8.648;2022-07-23T06:35:09;9.20;;;6.57;;
72261;SDS011;60173;52.112;8.648;2022-07-23T06:37:35;10.25;;;6.90;;
72261;SDS011;60173;52.112;8.648;2022-07-23T06:40:02;12.38;;;8.07;;
72261;SDS011;60173;52.112;8.648;2022-07-23T06:42:31;8.68;;;7.13;;
72261;SDS011;60173;52.112;8.648;2022-07-23T06:44:57;14.75;;;7.50;;
72261;SDS011;60173;52.112;8.648;2022-07-23T06:47:24;11.43;;;7.68;;
72261;SDS011;60173;52.112;8.648;2022-07-23T06:49:50;11.70;;;7.45;;
72261;SDS011;60173;52.112;8.648;2022-07-23T06:52:17;12.25;;;8.75;;
72261;SDS011;60173;52.112;8.648;2022-07-23T06:54:43;14.32;;;8.85;;
72261;SDS011;60173;52.112;8.648;2022-07-23T06:57:09;12.35;;;7.80;;
72261;SDS011;60173;52.112;8.648;2022-07-23T06:59:36;13.63;;;8.02;;
72261;SDS011;60173;52.112;8.648;2022-07-23T07:02:02;12.13;;;6.65;;
72261;SDS011;60173;52.112;8.648;2022-07-23T07:04:29;8.48;;;5.45;;
72261;SDS011;60173;52.112;8.648;2022-07-23T07:06:55;10.77;;;6.60;;
72261;SDS011;60173;52.112;8.648;2022-07-23T07:09:22;8.85;;;6.72;;
72261;SDS011;60173;52.112;8.648;2022-07-23T07:11:48;10.75;;;6.70;;
72261;SDS011;60173;52.112;8.648;2022-07-23T07:14:14;10.05;;;6.60;;
72261;SDS011;60173;52.112;8.648;2022-07-23T07:16:41;7.65;;;6.00;;
72261;SDS011;60173;52.112;8.648;2022-07-23T07:19:07;8.18;;;5.88;;
72261;SDS011;60173;52.112;8.648;2022-07-23T07:21:34;12.48;;;6.30;;
72261;SDS011;60173;52.112;8.648;2022-07-23T07:24:00;10.65;;;7.07;;
72261;SDS011;60173;52.112;8.648;2022-07-23T07:26:26;7.97;;;5.53;;
72261;SDS011;60173;52.112;8.648;2022-07-23T07:28:53;9.13;;;5.70;;
72261;SDS011;60173;52.112;8.648;2022-07-23T07:31:19;8.95;;;5.20;;
72261;SDS011;60173;52.112;8.648;2022-07-23T07:33:46;8.10;;;5.13;;
72261;SDS011;60173;52.112;8.648;2022-07-23T07:36:12;8.20;;;4.68;;
72261;SDS011;60173;52.112;8.648;2022-07-23T07:38:44;7.68;;;4.30;;
72261;SDS011;60173;52.112;8.648;2022-07-23T07:41:11;10.95;;;4.47;;
72261;SDS011;60173;52.112;8.648;2022-07-23T07:43:37;4.75;;;3.70;;
72261;SDS011;60173;52.112;8.648;2022-07-23T07:46:03;9.98;;;3.67;;
72261;SDS011;60173;52.112;8.648;2022-07-23T07:48:30;4.72;;;2.97;;
72261;SDS011;60173;52.112;8.648;2022-07-23T07:50:56;6.18;;;4.05;;
72261;SDS011;60173;52.112;8.648;2022-07-23T07:53:24;5.45;;;3.80;;
72261;SDS011;60173;52.112;8.648;2022-07-23T07:55:51;4.93;;;3.17;;
72261;SDS011;60173;52.112;8.648;2022-07-23T07:58:17;8.23;;;4.05;;
72261;SDS011;60173;52.112;8.648;2022-07-23T08:00:44;7.38;;;4.18;;
72261;SDS011;60173;52.112;8.648;2022-07-23T08:03:10;9.02;;;3.90;;
72261;SDS011;60173;52.112;8.648;2022-07-23T08:05:37;5.43;;;4.25;;
72261;SDS011;60173;52.112;8.648;2022-07-23T08:08:04;5.10;;;3.58;;
72261;SDS011;60173;52.112;8.648;2022-07-23T08:10:30;9.32;;;4.90;;
72261;SDS011;60173;52.112;8.648;2022-07-23T08:12:57;8.40;;;4.43;;
72261;SDS011;60173;52.112;8.648;2022-07-23T08:15:25;8.10;;;4.53;;
72261;SDS011;60173;52.112;8.648;2022-07-23T08:17:53;6.68;;;3.88;;
72261;SDS011;60173;52.112;8.648;2022-07-23T08:20:21;8.13;;;4.40;;
72261;SDS011;60173;52.112;8.648;2022-07-23T08:22:50;5.50;;;3.95;;
72261;SDS011;60173;52.112;8.648;2022-07-23T08:25:23;9.77;;;5.28;;
72261;SDS011;60173;52.112;8.648;2022-07-23T08:27:51;6.80;;;3.95;;
72261;SDS011;60173;52.112;8.648;2022-07-23T08:30:18;6.55;;;4.25;;
72261;SDS011;60173;52.112;8.648;2022-07-23T08:32:59;9.15;;;4.45;;
72261;SDS011;60173;52.112;8.648;2022-07-23T08:35:31;4.88;;;3.60;;
72261;SDS011;60173;52.112;8.648;2022-07-23T08:38:00;8.77;;;4.35;;
72261;SDS011;60173;52.112;8.648;2022-07-23T08:40:30;8.88;;;4.10;;
72261;SDS011;60173;52.112;8.648;2022-07-23T08:42:58;7.05;;;3.90;;
72261;SDS011;60173;52.112;8.648;2022-07-23T08:45:25;6.50;;;3.97;;
72261;SDS011;60173;52.112;8.648;2022-07-23T08:47:53;10.18;;;4.68;;
72261;SDS011;60173;52.112;8.648;2022-07-23T08:50:22;7.57;;;4.25;;
72261;SDS011;60173;52.112;8.648;2022-07-23T08:52:50;8.45;;;4.47;;
72261;SDS011;60173;52.112;8.648;2022-07-23T08:55:18;7.63;;;3.80;;
72261;SDS011;60173;52.112;8.648;2022-07-23T08:57:47;7.72;;;3.78;;
72261;SDS011;60173;52.112;8.648;2022-07-23T09:00:15;7.53;;;4.00;;
72261;SDS011;60173;52.112;8.648;2022-07-23T09:02:43;4.10;;;3.70;;
72261;SDS011;60173;52.112;8.648;2022-07-23T09:05:11;5.78;;;4.03;;
72261;SDS011;60173;52.112;8.648;2022-07-23T09:10:42;9.82;;;4.60;;
72261;SDS011;60173;52.112;8.648;2022-07-23T09:13:26;6.35;;;4.30;;
72261;SDS011;60173;52.112;8.648;2022-07-23T09:34:17;6.68;;;3.30;;
72261;SDS011;60173;52.112;8.648;2022-07-23T09:36:55;3.60;;;3.00;;
72261;SDS011;60173;52.112;8.648;2022-07-23T09:39:30;8.57;;;3.55;;
72261;SDS011;60173;52.112;8.648;2022-07-23T09:42:12;6.28;;;2.50;;
72261;SDS011;60173;52.112;8.648;2022-07-23T09:44:47;6.82;;;3.35;;
72261;SDS011;60173;52.112;8.648;2022-07-23T09:47:18;5.38;;;3.35;;
72261;SDS011;60173;52.112;8.648;2022-07-23T09:49:58;3.33;;;2.45;;
72261;SDS011;60173;52.112;8.648;2022-07-23T09:52:34;7.15;;;3.22;;
72261;SDS011;60173;52.112;8.648;2022-07-23T09:55:11;6.72;;;3.70;;
72261;SDS011;60173;52.112;8.648;2022-07-23T09:57:37;8.02;;;3.90;;
72261;SDS011;60173;52.112;8.648;2022-07-23T10:00:06;5.07;;;3.78;;
72261;SDS011;60173;52.112;8.648;2022-07-23T10:02:35;8.60;;;3.47;;
72261;SDS011;60173;52.112;8.648;2022-07-23T10:05:03;4.40;;;3.15;;
72261;SDS011;60173;52.112;8.648;2022-07-23T10:07:32;4.35;;;3.10;;
72261;SDS011;60173;52.112;8.648;2022-07-23T10:10:01;3.45;;;2.53;;
72261;SDS011;60173;52.112;8.648;2022-07-23T10:12:29;4.85;;;2.88;;
72261;SDS011;60173;52.112;8.648;2022-07-23T10:14:56;5.05;;;2.85;;
72261;SDS011;60173;52.112;8.648;2022-07-23T10:17:23;3.90;;;3.05;;
72261;SDS011;60173;52.112;8.648;2022-07-23T10:19:50;5.32;;;2.65;;
72261;SDS011;60173;52.112;8.648;2022-07-23T10:22:20;4.65;;;2.40;;
72261;SDS011;60173;52.112;8.648;2022-07-23T10:24:52;7.63;;;3.53;;
72261;SDS011;60173;52.112;8.648;2022-07-23T10:30:22;4.95;;;3.03;;
72261;SDS011;60173;52.112;8.648;2022-07-23T10:35:29;3.95;;;2.45;;
72261;SDS011;60173;52.112;8.648;2022-07-23T10:38:18;3.88;;;2.33;;
72261;SDS011;60173;52.112;8.648;2022-07-23T10:40:53;9.90;;;2.42;;
72261;SDS011;60173;52.112;8.648;2022-07-23T10:43:22;4.50;;;2.25;;
72261;SDS011;60173;52.112;8.648;2022-07-23T10:45:49;5.80;;;2.28;;
72261;SDS011;60173;52.112;8.648;2022-07-23T10:51:05;6.65;;;2.20;;
72261;SDS011;60173;52.112;8.648;2022-07-23T10:53:52;2.63;;;2.00;;
72261;SDS011;60173;52.112;8.648;2022-07-23T10:59:17;3.22;;;1.55;;
72261;SDS011;60173;52.112;8.648;2022-07-23T11:01:43;2.75;;;1.50;;
72261;SDS011;60173;52.112;8.648;2022-07-23T11:04:10;5.25;;;2.03;;
72261;SDS011;60173;52.112;8.648;2022-07-23T11:17:26;2.67;;;1.92;;
72261;SDS011;60173;52.112;8.648;2022-07-23T11:22:39;3.45;;;2.40;;
72261;SDS011;60173;52.112;8.648;2022-07-23T11:25:12;3.15;;;2.00;;
72261;SDS011;60173;52.112;8.648;2022-07-23T11:28:15;3.83;;;2.00;;
72261;SDS011;60173;52.112;8.648;2022-07-23T11:30:44;2.83;;;1.88;;
72261;SDS011;60173;52.112;8.648;2022-07-23T11:35:38;2.67;;;1.92;;
72261;SDS011;60173;52.112;8.648;2022-07-23T11:38:19;4.25;;;2.25;;
72261;SDS011;60173;52.112;8.648;2022-07-23T11:40:52;3.40;;;2.22;;
72261;SDS011;60173;52.112;8.648;2022-07-23T11:43:20;3.60;;;1.70;;
72261;SDS011;60173;52.112;8.648;2022-07-23T11:45:48;3.17;;;2.00;;
72261;SDS011;60173;52.112;8.648;2022-07-23T11:48:24;5.00;;;1.85;;
72261;SDS011;60173;52.112;8.648;2022-07-23T11:50:52;3.67;;;1.98;;
72261;SDS011;60173;52.112;8.648;2022-07-23T11:53:27;2.80;;;1.40;;
72261;SDS011;60173;52.112;8.648;2022-07-23T11:56:05;4.38;;;1.60;;
72261;SDS011;60173;52.112;8.648;2022-07-23T11:58:33;3.60;;;1.85;;
72261;SDS011;60173;52.112;8.648;2022-07-23T12:00:59;3.85;;;1.80;;
72261;SDS011;60173;52.112;8.648;2022-07-23T12:03:26;2.53;;;1.60;;
72261;SDS011;60173;52.112;8.648;2022-07-23T12:05:57;2.42;;;1.80;;
72261;SDS011;60173;52.112;8.648;2022-07-23T12:08:24;2.13;;;1.27;;
72261;SDS011;60173;52.112;8.648;2022-07-23T12:10:51;2.88;;;1.77;;
72261;SDS011;60173;52.112;8.648;2022-07-23T12:13:19;4.07;;;1.38;;
72261;SDS011;60173;52.112;8.648;2022-07-23T12:15:48;3.17;;;1.30;;
72261;SDS011;60173;52.112;8.648;2022-07-23T12:18:17;2.00;;;1.40;;
72261;SDS011;60173;52.112;8.648;2022-07-23T12:20:48;2.38;;;1.40;;
72261;SDS011;60173;52.112;8.648;2022-07-23T12:23:16;2.72;;;1.38;;
72261;SDS011;60173;52.112;8.648;2022-07-23T12:25:46;3.55;;;1.45;;
72261;SDS011;60173;52.112;8.648;2022-07-23T12:28:26;2.53;;;1.60;;
72261;SDS011;60173;52.112;8.648;2022-07-23T12:30:55;4.32;;;1.50;;
72261;SDS011;60173;52.112;8.648;2022-07-23T12:33:33;3.35;;;1.75;;
72261;SDS011;60173;52.112;8.648;2022-07-23T12:36:02;2.80;;;1.52;;
72261;SDS011;60173;52.112;8.648;2022-07-23T12:39:04;2.47;;;1.40;;
72261;SDS011;60173;52.112;8.648;2022-07-23T12:41:23;2.17;;;1.50;;
72261;SDS011;60173;52.112;8.648;2022-07-23T12:43:50;1.83;;;1.30;;
72261;SDS011;60173;52.112;8.648;2022-07-23T12:46:17;2.88;;;1.30;;
72261;SDS011;60173;52.112;8.648;2022-07-23T12:51:25;3.83;;;1.27;;
72261;SDS011;60173;52.112;8.648;2022-07-23T12:53:54;1.73;;;1.33;;
72261;SDS011;60173;52.112;8.648;2022-07-23T12:56:22;3.97;;;1.77;;
72261;SDS011;60173;52.112;8.648;2022-07-23T13:01:43;2.33;;;1.30;;
72261;SDS011;60173;52.112;8.648;2022-07-23T13:04:13;4.05;;;1.33;;
72261;SDS011;60173;52.112;8.648;2022-07-23T13:09:12;1.63;;;1.05;;
72261;SDS011;60173;52.112;8.648;2022-07-23T13:11:40;3.20;;;1.20;;
72261;SDS011;60173;52.112;8.648;2022-07-23T13:14:08;3.33;;;1.50;;
72261;SDS011;60173;52.112;8.648;2022-07-23T13:16:35;2.63;;;1.40;;
72261;SDS011;60173;52.112;8.648;2022-07-23T13:19:02;2.75;;;1.50;;
72261;SDS011;60173;52.112;8.648;2022-07-23T13:21:29;1.95;;;1.27;;
72261;SDS011;60173;52.112;8.648;2022-07-23T13:23:56;3.28;;;1.40;;
72261;SDS011;60173;52.112;8.648;2022-07-23T13:26:23;3.80;;;1.30;;
72261;SDS011;60173;52.112;8.648;2022-07-23T13:28:50;4.97;;;1.08;;
72261;SDS011;60173;52.112;8.648;2022-07-23T13:31:16;2.50;;;1.20;;
72261;SDS011;60173;52.112;8.648;2022-07-23T13:33:43;3.50;;;1.50;;
72261;SDS011;60173;52.112;8.648;2022-07-23T13:36:09;1.80;;;1.10;;
72261;SDS011;60173;52.112;8.648;2022-07-23T13:38:36;2.25;;;1.30;;
72261;SDS011;60173;52.112;8.648;2022-07-23T13:41:03;2.50;;;1.35;;
72261;SDS011;60173;52.112;8.648;2022-07-23T13:43:29;4.47;;;1.50;;
72261;SDS011;60173;52.112;8.648;2022-07-23T13:46:01;0.82;;;0.80;;
72261;SDS011;60173;52.112;8.648;2022-07-23T13:48:28;3.38;;;1.40;;
72261;SDS011;60173;52.112;8.648;2022-07-23T13:50:55;3.15;;;1.40;;
72261;SDS011;60173;52.112;8.648;2022-07-23T13:53:22;3.10;;;1.30;;
72261;SDS011;60173;52.112;8.648;2022-07-23T13:55:51;2.17;;;1.20;;
72261;SDS011;60173;52.112;8.648;2022-07-23T13:58:19;3.95;;;1.65;;
72261;SDS011;60173;52.112;8.648;2022-07-23T14:00:50;14.68;;;1.65;;
72261;SDS011;60173;52.112;8.648;2022-07-23T14:03:19;4.07;;;1.33;;
72261;SDS011;60173;52.112;8.648;2022-07-23T14:05:48;1.98;;;1.20;;
72261;SDS011;60173;52.112;8.648;2022-07-23T14:08:15;2.80;;;1.27;;
72261;SDS011;60173;52.112;8.648;2022-07-23T14:10:41;3.75;;;1.40;;
72261;SDS011;60173;52.112;8.648;2022-07-23T14:13:08;3.15;;;1.30;;
72261;SDS011;60173;52.112;8.648;2022-07-23T14:15:35;3.88;;;1.40;;
72261;SDS011;60173;52.112;8.648;2022-07-23T14:18:02;1.60;;;1.13;;
72261;SDS011;60173;52.112;8.648;2022-07-23T14:20:28;3.05;;;1.60;;
72261;SDS011;60173;52.112;8.648;2022-07-23T14:22:55;1.42;;;1.15;;
72261;SDS011;60173;52.112;8.648;2022-07-23T14:25:24;3.53;;;1.20;;
72261;SDS011;60173;52.112;8.648;2022-07-23T14:27:51;2.97;;;1.20;;
72261;SDS011;60173;52.112;8.648;2022-07-23T14:30:18;3.70;;;1.60;;
72261;SDS011;60173;52.112;8.648;2022-07-23T14:32:48;4.35;;;1.60;;
72261;SDS011;60173;52.112;8.648;2022-07-23T14:35:15;2.67;;;1.15;;
72261;SDS011;60173;52.112;8.648;2022-07-23T14:37:45;3.72;;;1.52;;
72261;SDS011;60173;52.112;8.648;2022-07-23T14:40:11;3.42;;;1.38;;
72261;SDS011;60173;52.112;8.648;2022-07-23T14:42:38;2.67;;;1.20;;
72261;SDS011;60173;52.112;8.648;2022-07-23T14:45:04;3.15;;;1.25;;
72261;SDS011;60173;52.112;8.648;2022-07-23T14:47:51;1.85;;;1.27;;
72261;SDS011;60173;52.112;8.648;2022-07-23T14:50:18;5.93;;;1.50;;
72261;SDS011;60173;52.112;8.648;2022-07-23T14:52:44;1.88;;;1.30;;
72261;SDS011;60173;52.112;8.648;2022-07-23T14:55:14;5.28;;;1.90;;
72261;SDS011;60173;52.112;8.648;2022-07-23T14:57:41;2.83;;;1.38;;
72261;SDS011;60173;52.112;8.648;2022-07-23T15:00:07;1.45;;;1.10;;
72261;SDS011;60173;52.112;8.648;2022-07-23T15:02:35;1.55;;;1.15;;
72261;SDS011;60173;52.112;8.648;2022-07-23T15:05:02;1.63;;;1.00;;
72261;SDS011;60173;52.112;8.648;2022-07-23T15:07:32;3.38;;;1.20;;
72261;SDS011;60173;52.112;8.648;2022-07-23T15:09:59;3.42;;;1.50;;
72261;SDS011;60173;52.112;8.648;2022-07-23T15:12:25;2.08;;;1.38;;
72261;SDS011;60173;52.112;8.648;2022-07-23T15:14:51;5.53;;;1.30;;
72261;SDS011;60173;52.112;8.648;2022-07-23T15:17:18;2.65;;;1.20;;
72261;SDS011;60173;52.112;8.648;2022-07-23T15:19:46;3.97;;;1.20;;
72261;SDS011;60173;52.112;8.648;2022-07-23T15:22:14;0.82;;;0.82;;
72261;SDS011;60173;52.112;8.648;2022-07-23T15:24:41;1.58;;;1.17;;
72261;SDS011;60173;52.112;8.648;2022-07-23T15:27:08;2.65;;;1.40;;
72261;SDS011;60173;52.112;8.648;2022-07-23T15:29:34;2.17;;;1.10;;
72261;SDS011;60173;52.112;8.648;2022-07-23T15:32:01;3.50;;;1.48;;
72261;SDS011;60173;52.112;8.648;2022-07-23T15:34:27;2.22;;;1.08;;
72261;SDS011;60173;52.112;8.648;2022-07-23T15:36:55;1.77;;;1.00;;